createdAt,value
2023-04-16T00:00:11.168Z,34.65
2023-04-16T00:01:11.224Z,37.18
2023-04-16T00:02:11.317Z,35.43
2023-04-16T00:03:11.911Z,33.67
2023-04-16T00:04:11.513Z,33.88
2023-04-16T00:05:11.401Z,32.17
2023-04-16T00:06:11.521Z,34.51
2023-04-16T00:07:11.476Z,37.88
2023-04-16T00:08:11.551Z,36.21
2023-04-16T00:09:11.703Z,32.69
2023-04-16T00:10:11.647Z,34.43
2023-04-16T00:11:11.697Z,33.91
2023-04-16T00:12:11.736Z,37.47
2023-04-16T00:13:11.786Z,36.30
2023-04-16T00:14:11.825Z,34.74
2023-04-16T00:15:11.864Z,34.45
2023-04-16T00:16:11.924Z,34.28
2023-04-16T00:17:12.076Z,37.35
2023-04-16T00:18:12.029Z,32.95
2023-04-16T00:19:12.250Z,34.12
2023-04-16T00:20:12.125Z,31.12
2023-04-16T00:21:12.177Z,34.49
2023-04-16T00:22:12.209Z,36.09
2023-04-16T00:23:12.345Z,35.79
2023-04-16T00:24:12.319Z,36.41
2023-04-16T00:25:12.388Z,36.07
2023-04-16T00:26:12.484Z,33.75
2023-04-16T00:27:12.520Z,34.02
2023-04-16T00:28:12.628Z,34.70
2023-04-16T00:29:12.636Z,33.43
2023-04-16T00:30:12.670Z,36.61
2023-04-16T00:31:12.730Z,35.00
2023-04-16T00:32:12.797Z,36.44
2023-04-16T00:33:13.767Z,32.72
2023-04-16T00:34:12.874Z,33.67
2023-04-16T00:35:12.913Z,34.05
2023-04-16T00:36:13.763Z,31.77
2023-04-16T00:37:13.006Z,31.76
2023-04-16T00:38:13.052Z,33.30
2023-04-16T00:39:13.093Z,31.78
2023-04-16T00:40:13.161Z,33.90
2023-04-16T00:41:13.213Z,31.71
2023-04-16T00:42:13.350Z,33.31
2023-04-16T00:43:13.325Z,34.16
2023-04-16T00:44:13.389Z,31.62
2023-04-16T00:45:13.409Z,33.58
2023-04-16T00:46:13.492Z,31.63
2023-04-16T00:47:13.507Z,34.10
2023-04-16T00:48:13.525Z,34.17
2023-04-16T00:49:13.569Z,33.58
2023-04-16T00:50:13.638Z,34.96
2023-04-16T00:51:13.655Z,34.77
2023-04-16T00:52:13.713Z,34.91
2023-04-16T00:53:13.776Z,33.09
2023-04-16T00:54:13.793Z,33.23
2023-04-16T00:55:13.873Z,33.90
2023-04-16T00:56:13.917Z,33.42
2023-04-16T00:57:13.969Z,30.94
2023-04-16T00:58:14.068Z,30.68
2023-04-16T00:59:14.039Z,30.43
2023-04-16T01:00:14.070Z,30.20
2023-04-16T01:01:14.136Z,29.55
2023-04-16T01:02:14.844Z,32.91
2023-04-16T01:03:14.275Z,35.18
2023-04-16T01:04:14.325Z,32.63
2023-04-16T01:05:14.307Z,29.67
2023-04-16T01:06:14.352Z,30.98
2023-04-16T01:07:14.406Z,31.86
2023-04-16T01:08:14.427Z,30.52
2023-04-16T01:09:14.486Z,29.18
2023-04-16T01:10:14.527Z,29.61
2023-04-16T01:11:14.535Z,30.37
2023-04-16T01:12:14.596Z,32.05
2023-04-16T01:13:14.662Z,32.02
2023-04-16T01:14:14.790Z,31.04
2023-04-16T01:15:14.757Z,30.47
2023-04-16T01:16:14.835Z,28.23
2023-04-16T01:17:14.860Z,30.04
2023-04-16T01:18:14.902Z,29.31
2023-04-16T01:19:14.938Z,31.06
2023-04-16T01:20:15.781Z,30.73
2023-04-16T01:21:15.780Z,30.71
2023-04-16T01:22:15.086Z,30.58
2023-04-16T01:23:15.141Z,29.81
2023-04-16T01:24:15.189Z,31.31
2023-04-16T01:25:15.236Z,31.64
2023-04-16T01:26:15.532Z,28.31
2023-04-16T01:27:15.365Z,28.89
2023-04-16T01:28:15.412Z,33.03
2023-04-16T01:29:15.525Z,29.79
2023-04-16T01:30:16.282Z,32.90
2023-04-16T01:31:15.578Z,32.08
2023-04-16T01:32:15.587Z,31.26
2023-04-16T01:33:15.625Z,29.84
2023-04-16T01:34:15.716Z,30.28
2023-04-16T01:35:15.665Z,29.68
2023-04-16T01:36:15.706Z,32.36
2023-04-16T01:37:15.726Z,32.52
2023-04-16T01:38:15.777Z,30.69
2023-04-16T01:39:15.837Z,28.37
2023-04-16T01:40:15.816Z,28.65
2023-04-16T01:41:15.845Z,27.77
2023-04-16T01:42:15.891Z,28.86
2023-04-16T01:43:15.918Z,30.28
2023-04-16T01:44:15.950Z,28.54
2023-04-16T01:45:16.029Z,30.72
2023-04-16T01:46:16.921Z,28.98
2023-04-16T01:47:16.034Z,27.02
2023-04-16T01:48:16.053Z,29.93
2023-04-16T01:49:16.086Z,30.00
2023-04-16T01:50:16.214Z,29.98
2023-04-16T01:51:16.156Z,27.61
2023-04-16T01:52:16.192Z,29.74
2023-04-16T01:53:16.242Z,30.31
2023-04-16T01:54:16.274Z,29.37
2023-04-16T01:55:16.347Z,32.50
2023-04-16T01:56:16.420Z,29.34
2023-04-16T01:57:16.384Z,32.83
2023-04-16T01:58:16.820Z,27.09
2023-04-16T01:59:16.490Z,28.31
2023-04-16T02:00:16.495Z,28.38
2023-04-16T02:01:16.569Z,29.25
2023-04-16T02:02:16.646Z,26.71
2023-04-16T02:03:16.701Z,25.55
2023-04-16T02:04:16.662Z,30.29
2023-04-16T02:05:16.621Z,29.95
2023-04-16T02:06:16.651Z,32.08
2023-04-16T02:07:16.691Z,31.03
2023-04-16T02:08:16.738Z,29.22
2023-04-16T02:09:16.807Z,30.69
2023-04-16T02:10:16.853Z,27.25
2023-04-16T02:11:16.892Z,30.77
2023-04-16T02:12:16.889Z,33.05
2023-04-16T02:13:17.805Z,29.10
2023-04-16T02:14:17.053Z,30.21
2023-04-16T02:15:17.032Z,31.99
2023-04-16T02:16:17.107Z,30.76
2023-04-16T02:17:17.104Z,29.13
2023-04-16T02:18:17.160Z,31.95
2023-04-16T02:19:17.193Z,25.63
2023-04-16T02:20:17.239Z,28.55
2023-04-16T02:21:17.311Z,27.85
2023-04-16T02:22:17.340Z,26.60
2023-04-16T02:23:17.381Z,28.34
2023-04-16T02:24:17.421Z,30.80
2023-04-16T02:25:17.464Z,29.08
2023-04-16T02:26:17.502Z,28.79
2023-04-16T02:27:17.545Z,31.24
2023-04-16T02:28:17.603Z,29.78
2023-04-16T02:29:17.810Z,30.04
2023-04-16T02:30:17.699Z,29.84
2023-04-16T02:31:17.720Z,32.50
2023-04-16T02:32:17.747Z,31.72
2023-04-16T02:33:18.331Z,32.57
2023-04-16T02:34:17.752Z,30.05
2023-04-16T02:35:17.766Z,29.74
2023-04-16T02:36:17.775Z,31.21
2023-04-16T02:37:17.790Z,33.69
2023-04-16T02:38:17.799Z,31.96
2023-04-16T02:39:17.820Z,30.90
2023-04-16T02:40:17.862Z,29.96
2023-04-16T02:41:17.893Z,29.63
2023-04-16T02:42:18.017Z,33.61
2023-04-16T02:43:18.034Z,30.21
2023-04-16T02:44:17.998Z,26.95
2023-04-16T02:45:18.056Z,29.66
2023-04-16T02:46:18.100Z,30.77
2023-04-16T02:47:18.154Z,30.19
2023-04-16T02:48:18.140Z,28.40
2023-04-16T02:49:18.175Z,32.80
2023-04-16T02:50:18.203Z,29.34
2023-04-16T02:51:18.269Z,30.16
2023-04-16T02:52:18.253Z,29.23
2023-04-16T02:53:18.264Z,28.00
2023-04-16T02:54:18.281Z,29.12
2023-04-16T02:55:18.298Z,28.11
2023-04-16T02:56:18.318Z,27.07
2023-04-16T02:57:18.349Z,28.62
2023-04-16T02:58:18.361Z,29.78
2023-04-16T02:59:18.384Z,29.32
2023-04-16T03:00:18.411Z,30.07
2023-04-16T03:01:18.488Z,27.86
2023-04-16T03:02:18.528Z,29.92
2023-04-16T03:03:18.576Z,29.51
2023-04-16T03:04:18.562Z,28.29
2023-04-16T03:05:18.553Z,25.50
2023-04-16T03:06:18.577Z,30.47
2023-04-16T03:07:18.624Z,32.01
2023-04-16T03:08:18.651Z,29.56
2023-04-16T03:09:18.684Z,31.19
2023-04-16T03:10:18.843Z,27.20
2023-04-16T03:11:18.783Z,30.71
2023-04-16T03:12:18.823Z,31.56
2023-04-16T03:13:18.846Z,29.34
2023-04-16T03:14:18.864Z,30.82
2023-04-16T03:15:18.963Z,29.57
2023-04-16T03:16:18.977Z,28.05
2023-04-16T03:17:19.057Z,32.27
2023-04-16T03:18:19.024Z,28.63
2023-04-16T03:19:19.032Z,29.32
2023-04-16T03:20:19.068Z,26.56
2023-04-16T03:21:19.082Z,26.85
2023-04-16T03:22:19.086Z,27.25
2023-04-16T03:23:19.161Z,26.91
2023-04-16T03:24:19.163Z,30.46
2023-04-16T03:25:19.173Z,28.31
2023-04-16T03:26:19.208Z,30.71
2023-04-16T03:27:19.232Z,29.78
2023-04-16T03:28:19.341Z,29.97
2023-04-16T03:29:19.272Z,25.70
2023-04-16T03:30:19.323Z,31.34
2023-04-16T03:31:19.835Z,31.70
2023-04-16T03:32:19.395Z,29.90
2023-04-16T03:33:19.321Z,29.78
2023-04-16T03:34:19.357Z,26.38
2023-04-16T03:35:19.382Z,28.06
2023-04-16T03:36:19.403Z,26.62
2023-04-16T03:37:19.434Z,30.23
2023-04-16T03:38:19.477Z,28.72
2023-04-16T03:39:19.578Z,30.02
2023-04-16T03:40:19.598Z,28.01
2023-04-16T03:41:19.625Z,25.62
2023-04-16T03:42:19.670Z,28.37
2023-04-16T03:43:19.703Z,29.37
2023-04-16T03:44:19.722Z,31.07
2023-04-16T03:45:19.754Z,28.17
2023-04-16T03:46:19.812Z,29.01
2023-04-16T03:47:19.841Z,28.35
2023-04-16T03:48:19.901Z,27.55
2023-04-16T03:49:19.901Z,30.76
2023-04-16T03:50:19.955Z,31.59
2023-04-16T03:51:19.967Z,29.92
2023-04-16T03:52:19.989Z,30.70
2023-04-16T03:53:20.042Z,30.54
2023-04-16T03:54:22.435Z,29.22
2023-04-16T03:55:20.033Z,30.36
2023-04-16T03:56:20.026Z,31.33
2023-04-16T03:57:20.044Z,28.16
2023-04-16T03:58:20.037Z,28.85
2023-04-16T03:59:20.004Z,27.89
2023-04-16T04:00:20.005Z,28.81
2023-04-16T04:01:19.993Z,26.00
2023-04-16T04:02:20.118Z,28.59
2023-04-16T04:03:20.323Z,31.30
2023-04-16T04:04:20.145Z,28.35
2023-04-16T04:05:19.974Z,29.80
2023-04-16T04:06:19.953Z,30.12
2023-04-16T04:07:20.848Z,30.79
2023-04-16T04:08:19.948Z,31.43
2023-04-16T04:09:19.943Z,30.44
2023-04-16T04:10:19.936Z,27.17
2023-04-16T04:11:19.927Z,28.33
2023-04-16T04:12:19.921Z,29.51
2023-04-16T04:13:19.912Z,31.19
2023-04-16T04:14:19.903Z,28.35
2023-04-16T04:15:19.893Z,26.88
2023-04-16T04:16:19.969Z,29.34
2023-04-16T04:17:19.969Z,28.39
2023-04-16T04:18:19.881Z,27.41
2023-04-16T04:19:19.878Z,26.04
2023-04-16T04:20:19.860Z,30.28
2023-04-16T04:21:19.852Z,28.33
2023-04-16T04:22:20.347Z,29.14
2023-04-16T04:23:19.846Z,31.13
2023-04-16T04:24:19.857Z,27.06
2023-04-16T04:25:19.842Z,28.76
2023-04-16T04:26:19.857Z,28.66
2023-04-16T04:27:19.911Z,27.14
2023-04-16T04:28:19.880Z,30.01
2023-04-16T04:29:19.804Z,25.64
2023-04-16T04:30:19.800Z,28.97
2023-04-16T04:31:19.796Z,30.22
2023-04-16T04:32:19.792Z,30.62
2023-04-16T04:33:19.779Z,30.58
2023-04-16T04:34:19.781Z,30.04
2023-04-16T04:35:19.768Z,30.69
2023-04-16T04:36:19.749Z,28.73
2023-04-16T04:37:20.353Z,32.14
2023-04-16T04:38:20.359Z,27.32
2023-04-16T04:39:19.736Z,32.13
2023-04-16T04:40:19.735Z,28.22
2023-04-16T04:41:19.721Z,30.03
2023-04-16T04:42:19.709Z,28.06
2023-04-16T04:43:19.776Z,28.33
2023-04-16T04:44:19.779Z,33.03
2023-04-16T04:45:19.697Z,29.89
2023-04-16T04:46:19.837Z,27.62
2023-04-16T04:47:19.677Z,26.02
2023-04-16T04:48:19.665Z,26.25
2023-04-16T04:49:19.655Z,26.73
2023-04-16T04:50:19.651Z,31.81
2023-04-16T04:51:19.649Z,32.12
2023-04-16T04:52:19.642Z,26.44
2023-04-16T04:53:19.640Z,25.95
2023-04-16T04:54:19.629Z,30.62
2023-04-16T04:55:19.621Z,29.59
2023-04-16T04:56:19.615Z,30.06
2023-04-16T04:57:19.600Z,27.49
2023-04-16T04:58:19.581Z,31.14
2023-04-16T04:59:19.582Z,29.59
2023-04-16T05:00:19.586Z,32.27
2023-04-16T05:01:19.599Z,28.08
2023-04-16T05:02:19.673Z,27.55
2023-04-16T05:03:19.645Z,28.25
2023-04-16T05:04:19.699Z,28.62
2023-04-16T05:05:19.579Z,26.92
2023-04-16T05:06:19.536Z,30.40
2023-04-16T05:07:19.541Z,30.89
2023-04-16T05:08:19.544Z,29.63
2023-04-16T05:09:19.568Z,29.07
2023-04-16T05:10:19.645Z,30.32
2023-04-16T05:11:19.707Z,25.84
2023-04-16T05:12:19.632Z,29.52
2023-04-16T05:13:19.636Z,28.72
2023-04-16T05:14:19.629Z,29.96
2023-04-16T05:15:19.660Z,26.58
2023-04-16T05:16:19.680Z,30.04
2023-04-16T05:17:19.664Z,28.44
2023-04-16T05:18:19.632Z,31.21
2023-04-16T05:19:19.635Z,29.36
2023-04-16T05:20:19.651Z,33.70
2023-04-16T05:21:19.638Z,26.39
2023-04-16T05:22:19.616Z,27.88
2023-04-16T05:23:19.622Z,28.75
2023-04-16T05:24:19.617Z,30.29
2023-04-16T05:25:19.686Z,29.21
2023-04-16T05:26:19.698Z,28.63
2023-04-16T05:27:19.713Z,31.49
2023-04-16T05:28:19.819Z,31.04
2023-04-16T05:29:19.749Z,33.25
2023-04-16T05:30:19.771Z,28.68
2023-04-16T05:31:19.929Z,32.25
2023-04-16T05:32:19.833Z,31.03
2023-04-16T05:33:19.816Z,31.90
2023-04-16T05:34:19.849Z,28.20
2023-04-16T05:35:19.861Z,32.01
2023-04-16T05:36:19.872Z,32.88
2023-04-16T05:37:19.881Z,29.94
2023-04-16T05:38:19.869Z,32.58
2023-04-16T05:39:19.889Z,30.89
2023-04-16T05:40:19.890Z,33.10
2023-04-16T05:41:19.927Z,26.98
2023-04-16T05:42:19.946Z,28.55
2023-04-16T05:43:19.959Z,29.58
2023-04-16T05:44:20.399Z,26.50
2023-04-16T05:45:20.005Z,29.02
2023-04-16T05:46:20.073Z,25.00
2023-04-16T05:47:20.070Z,32.53
2023-04-16T05:48:20.101Z,26.51
2023-04-16T05:49:20.081Z,30.78
2023-04-16T05:50:20.107Z,29.35
2023-04-16T05:51:20.136Z,29.18
2023-04-16T05:52:20.175Z,31.29
2023-04-16T05:53:20.236Z,29.87
2023-04-16T05:54:20.239Z,27.84
2023-04-16T05:55:20.254Z,29.58
2023-04-16T05:56:20.254Z,28.75
2023-04-16T05:57:20.282Z,31.22
2023-04-16T05:58:20.286Z,32.02
2023-04-16T05:59:20.308Z,28.62
2023-04-16T06:00:20.343Z,30.38
2023-04-16T06:01:20.368Z,28.81
2023-04-16T06:02:20.531Z,29.76
2023-04-16T06:03:20.458Z,30.18
2023-04-16T06:04:20.608Z,29.06
2023-04-16T06:05:20.621Z,28.24
2023-04-16T06:06:20.551Z,30.15
2023-04-16T06:07:20.598Z,30.23
2023-04-16T06:08:20.665Z,30.12
2023-04-16T06:09:20.708Z,28.01
2023-04-16T06:10:20.761Z,30.66
2023-04-16T06:11:20.837Z,30.16
2023-04-16T06:12:20.904Z,28.21
2023-04-16T06:13:20.909Z,30.16
2023-04-16T06:14:21.398Z,30.87
2023-04-16T06:15:20.988Z,28.42
2023-04-16T06:16:21.101Z,32.15
2023-04-16T06:17:21.068Z,28.56
2023-04-16T06:18:21.127Z,35.57
2023-04-16T06:19:21.193Z,32.69
2023-04-16T06:20:21.201Z,32.49
2023-04-16T06:21:21.242Z,30.18
2023-04-16T06:22:21.309Z,25.78
2023-04-16T06:23:21.338Z,29.39
2023-04-16T06:24:21.374Z,26.13
2023-04-16T06:25:21.437Z,26.00
2023-04-16T06:26:21.470Z,30.70
2023-04-16T06:27:21.505Z,28.63
2023-04-16T06:28:21.576Z,28.81
2023-04-16T06:29:24.147Z,31.39
2023-04-16T06:30:22.641Z,31.54
2023-04-16T06:31:21.628Z,28.71
2023-04-16T06:32:21.619Z,29.84
2023-04-16T06:33:21.602Z,34.02
2023-04-16T06:34:21.586Z,30.26
2023-04-16T06:35:22.584Z,31.60
2023-04-16T06:36:21.575Z,31.62
2023-04-16T06:37:21.555Z,31.56
2023-04-16T06:38:21.565Z,32.53
2023-04-16T06:39:21.560Z,31.90
2023-04-16T06:40:21.548Z,35.59
2023-04-16T06:41:21.536Z,34.02
2023-04-16T06:42:21.531Z,32.95
2023-04-16T06:43:21.537Z,31.12
2023-04-16T06:44:21.575Z,33.54
2023-04-16T06:45:21.622Z,28.77
2023-04-16T06:46:21.770Z,28.77
2023-04-16T06:47:21.759Z,30.53
2023-04-16T06:48:21.772Z,30.62
2023-04-16T06:49:21.815Z,30.58
2023-04-16T06:50:21.848Z,27.32
2023-04-16T06:51:21.900Z,29.88
2023-04-16T06:52:21.970Z,28.11
2023-04-16T06:53:22.019Z,29.90
2023-04-16T06:54:22.068Z,26.22
2023-04-16T06:55:22.104Z,30.94
2023-04-16T06:56:22.172Z,29.40
2023-04-16T06:57:22.184Z,31.87
2023-04-16T06:58:22.227Z,32.09
2023-04-16T06:59:22.276Z,32.73
2023-04-16T07:00:22.403Z,28.17
2023-04-16T07:01:22.387Z,28.17
2023-04-16T07:02:22.482Z,26.83
2023-04-16T07:03:22.621Z,25.00
2023-04-16T07:04:22.502Z,25.23
2023-04-16T07:05:22.540Z,28.52
2023-04-16T07:06:22.594Z,27.69
2023-04-16T07:07:22.640Z,27.90
2023-04-16T07:08:22.915Z,32.76
2023-04-16T07:09:22.748Z,30.37
2023-04-16T07:10:22.873Z,28.12
2023-04-16T07:11:22.845Z,30.29
2023-04-16T07:12:23.084Z,29.99
2023-04-16T07:13:22.954Z,28.69
2023-04-16T07:14:23.018Z,25.66
2023-04-16T07:15:23.060Z,27.64
2023-04-16T07:16:23.135Z,27.62
2023-04-16T07:17:23.188Z,29.41
2023-04-16T07:18:23.208Z,30.15
2023-04-16T07:19:23.256Z,31.04
2023-04-16T07:20:23.314Z,29.24
2023-04-16T07:21:23.353Z,32.05
2023-04-16T07:22:23.400Z,29.13
2023-04-16T07:23:23.437Z,31.20
2023-04-16T07:24:23.481Z,30.57
2023-04-16T07:25:23.529Z,30.56
2023-04-16T07:26:23.582Z,33.36
2023-04-16T07:27:23.629Z,31.49
2023-04-16T07:28:23.685Z,31.83
2023-04-16T07:29:23.801Z,32.42
2023-04-16T07:30:23.801Z,34.24
2023-04-16T07:31:23.943Z,33.63
2023-04-16T07:32:24.030Z,28.69
2023-04-16T07:33:23.954Z,28.68
2023-04-16T07:34:24.009Z,29.23
2023-04-16T07:35:24.064Z,30.71
2023-04-16T07:36:24.105Z,28.21
2023-04-16T07:37:24.937Z,31.22
2023-04-16T07:38:24.201Z,28.00
2023-04-16T07:39:24.261Z,31.77
2023-04-16T07:40:24.409Z,33.10
2023-04-16T07:41:24.370Z,31.90
2023-04-16T07:42:24.432Z,31.71
2023-04-16T07:43:24.494Z,31.76
2023-04-16T07:44:24.532Z,30.80
2023-04-16T07:45:24.564Z,29.44
2023-04-16T07:46:24.942Z,30.15
2023-04-16T07:47:24.677Z,32.61
2023-04-16T07:48:24.710Z,31.34
2023-04-16T07:49:24.765Z,30.32
2023-04-16T07:50:24.827Z,35.23
2023-04-16T07:51:24.888Z,36.45
2023-04-16T07:52:24.931Z,33.86
2023-04-16T07:53:24.986Z,33.38
2023-04-16T07:54:25.134Z,34.35
2023-04-16T07:55:25.102Z,33.62
2023-04-16T07:56:25.165Z,32.81
2023-04-16T07:57:25.230Z,33.19
2023-04-16T07:58:25.295Z,31.78
2023-04-16T07:59:25.617Z,31.59
2023-04-16T08:00:25.417Z,35.06
2023-04-16T08:01:25.476Z,31.27
2023-04-16T08:02:25.722Z,30.45
2023-04-16T08:03:25.840Z,33.45
2023-04-16T08:04:26.447Z,35.05
2023-04-16T08:05:25.727Z,36.47
2023-04-16T08:06:25.774Z,34.73
2023-04-16T08:07:25.895Z,34.64
2023-04-16T08:08:25.899Z,32.75
2023-04-16T08:09:25.955Z,35.55
2023-04-16T08:10:26.013Z,33.25
2023-04-16T08:11:26.075Z,32.73
2023-04-16T08:12:26.124Z,34.48
2023-04-16T08:13:26.178Z,34.14
2023-04-16T08:14:26.255Z,32.54
2023-04-16T08:15:26.295Z,35.81
2023-04-16T08:16:26.433Z,36.35
2023-04-16T08:17:26.506Z,32.26
2023-04-16T08:18:26.458Z,33.02
2023-04-16T08:19:26.593Z,32.52
2023-04-16T08:20:26.581Z,32.49
2023-04-16T08:21:26.613Z,31.86
2023-04-16T08:22:26.668Z,35.46
2023-04-16T08:23:26.726Z,33.14
2023-04-16T08:24:26.833Z,31.79
2023-04-16T08:25:26.837Z,32.57
2023-04-16T08:26:26.879Z,33.81
2023-04-16T08:27:26.941Z,34.94
2023-04-16T08:28:27.000Z,31.62
2023-04-16T08:29:27.051Z,31.52
2023-04-16T08:30:27.100Z,32.42
2023-04-16T08:31:27.187Z,33.22
2023-04-16T08:32:27.218Z,30.59
2023-04-16T08:33:27.259Z,30.18
2023-04-16T08:34:27.289Z,32.93
2023-04-16T08:35:27.348Z,31.71
2023-04-16T08:36:27.393Z,34.24
2023-04-16T08:37:27.945Z,32.57
2023-04-16T08:38:27.503Z,35.40
2023-04-16T08:39:27.530Z,31.59
2023-04-16T08:40:27.597Z,29.73
2023-04-16T08:41:27.636Z,31.84
2023-04-16T08:42:27.692Z,28.54
2023-04-16T08:43:27.742Z,29.41
2023-04-16T08:44:27.782Z,27.35
2023-04-16T08:45:27.832Z,32.20
2023-04-16T08:46:27.895Z,31.67
2023-04-16T08:47:27.961Z,32.44
2023-04-16T08:48:27.986Z,34.68
2023-04-16T08:49:28.017Z,33.21
2023-04-16T08:50:28.068Z,34.11
2023-04-16T08:51:28.121Z,32.47
2023-04-16T08:52:28.171Z,31.22
2023-04-16T08:53:28.466Z,30.87
2023-04-16T08:54:28.262Z,30.60
2023-04-16T08:55:28.312Z,31.18
2023-04-16T08:56:28.359Z,30.42
2023-04-16T08:57:28.416Z,32.13
2023-04-16T08:58:28.464Z,31.35
2023-04-16T08:59:28.501Z,33.23
2023-04-16T09:00:28.637Z,32.08
2023-04-16T09:01:28.725Z,34.81
2023-04-16T09:02:28.767Z,31.82
2023-04-16T09:03:28.755Z,31.12
2023-04-16T09:04:28.806Z,33.21
2023-04-16T09:05:28.777Z,31.15
2023-04-16T09:06:28.834Z,34.54
2023-04-16T09:07:28.870Z,34.12
2023-04-16T09:08:28.922Z,33.89
2023-04-16T09:09:28.960Z,33.59
2023-04-16T09:10:29.020Z,32.13
2023-04-16T09:11:29.054Z,32.64
2023-04-16T09:12:29.108Z,33.39
2023-04-16T09:13:29.467Z,33.10
2023-04-16T09:14:29.204Z,35.39
2023-04-16T09:15:29.239Z,33.31
2023-04-16T09:16:29.316Z,32.55
2023-04-16T09:17:29.397Z,34.24
2023-04-16T09:18:29.388Z,34.68
2023-04-16T09:19:29.446Z,33.96
2023-04-16T09:20:29.500Z,36.07
2023-04-16T09:21:29.527Z,35.30
2023-04-16T09:22:29.570Z,34.79
2023-04-16T09:23:29.969Z,35.48
2023-04-16T09:24:29.650Z,36.59
2023-04-16T09:25:29.692Z,36.73
2023-04-16T09:26:29.739Z,35.18
2023-04-16T09:27:29.808Z,37.13
2023-04-16T09:28:29.828Z,34.69
2023-04-16T09:29:29.873Z,36.34
2023-04-16T09:30:29.917Z,35.72
2023-04-16T09:31:29.984Z,35.44
2023-04-16T09:32:30.002Z,35.11
2023-04-16T09:33:30.046Z,33.66
2023-04-16T09:34:30.084Z,37.14
2023-04-16T09:35:30.136Z,35.80
2023-04-16T09:36:30.155Z,34.23
2023-04-16T09:37:30.204Z,36.92
2023-04-16T09:38:30.246Z,38.53
2023-04-16T09:39:30.276Z,40.00
2023-04-16T09:40:30.356Z,39.32
2023-04-16T09:41:30.367Z,40.61
2023-04-16T09:42:30.402Z,39.83
2023-04-16T09:43:30.446Z,41.23
2023-04-16T09:44:30.476Z,40.64
2023-04-16T09:45:30.525Z,40.06
2023-04-16T09:46:30.640Z,38.27
2023-04-16T09:47:30.631Z,38.12
2023-04-16T09:48:30.623Z,37.87
2023-04-16T09:49:30.664Z,40.00
2023-04-16T09:50:30.714Z,39.84
2023-04-16T09:51:30.736Z,39.03
2023-04-16T09:52:30.764Z,38.77
2023-04-16T09:53:30.874Z,40.53
2023-04-16T09:54:30.980Z,42.36
2023-04-16T09:55:30.892Z,38.93
2023-04-16T09:56:30.949Z,40.81
2023-04-16T09:57:30.979Z,37.54
2023-04-16T09:58:31.013Z,40.07
2023-04-16T09:59:31.049Z,41.55
2023-04-16T10:00:31.102Z,39.85
2023-04-16T10:01:31.167Z,40.55
2023-04-16T10:02:31.250Z,42.99
2023-04-16T10:03:31.311Z,40.99
2023-04-16T10:04:31.289Z,42.40
2023-04-16T10:05:31.294Z,40.67
2023-04-16T10:06:31.337Z,40.79
2023-04-16T10:07:31.372Z,42.12
2023-04-16T10:08:31.424Z,39.90
2023-04-16T10:09:31.456Z,40.22
2023-04-16T10:10:31.515Z,40.34
2023-04-16T10:11:31.554Z,42.06
2023-04-16T10:12:31.608Z,42.74
2023-04-16T10:13:31.677Z,43.72
2023-04-16T10:14:31.692Z,40.67
2023-04-16T10:15:31.727Z,37.81
2023-04-16T10:16:31.822Z,40.88
2023-04-16T10:17:31.848Z,42.72
2023-04-16T10:18:31.866Z,41.27
2023-04-16T10:19:31.903Z,43.01
2023-04-16T10:20:31.944Z,43.00
2023-04-16T10:21:32.048Z,42.09
2023-04-16T10:22:32.028Z,41.93
2023-04-16T10:23:32.068Z,42.86
2023-04-16T10:24:32.152Z,42.16
2023-04-16T10:25:32.163Z,43.13
2023-04-16T10:26:32.217Z,40.81
2023-04-16T10:27:32.260Z,42.50
2023-04-16T10:28:32.298Z,41.71
2023-04-16T10:29:32.339Z,42.88
2023-04-16T10:30:32.421Z,43.11
2023-04-16T10:31:32.459Z,43.75
2023-04-16T10:32:32.528Z,42.29
2023-04-16T10:33:32.525Z,42.34
2023-04-16T10:34:32.556Z,41.42
2023-04-16T10:35:32.596Z,40.81
2023-04-16T10:36:32.650Z,43.95
2023-04-16T10:37:32.669Z,42.38
2023-04-16T10:38:32.707Z,42.23
2023-04-16T10:39:32.748Z,41.47
2023-04-16T10:40:32.788Z,40.25
2023-04-16T10:41:32.841Z,42.22
2023-04-16T10:42:32.888Z,41.54
2023-04-16T10:43:32.923Z,41.40
2023-04-16T10:44:32.975Z,40.61
2023-04-16T10:45:33.019Z,41.76
2023-04-16T10:46:33.127Z,41.23
2023-04-16T10:47:33.086Z,41.67
2023-04-16T10:48:46.531Z,42.40
2023-04-16T10:49:34.112Z,42.55
2023-04-16T10:50:33.093Z,42.97
2023-04-16T10:51:33.083Z,43.45
2023-04-16T10:52:33.084Z,42.51
2023-04-16T10:53:33.080Z,43.26
2023-04-16T10:54:33.076Z,43.20
2023-04-16T10:55:33.071Z,41.71
2023-04-16T10:56:33.061Z,41.49
2023-04-16T10:57:33.059Z,45.85
2023-04-16T10:58:33.044Z,44.08
2023-04-16T10:59:34.000Z,44.67
2023-04-16T11:00:33.048Z,43.95
2023-04-16T11:01:33.112Z,42.64
2023-04-16T11:02:33.180Z,40.38
2023-04-16T11:03:33.125Z,40.79
2023-04-16T11:04:33.076Z,41.21
2023-04-16T11:05:32.999Z,43.05
2023-04-16T11:06:33.007Z,43.40
2023-04-16T11:07:33.064Z,44.75
2023-04-16T11:08:35.019Z,42.77
2023-04-16T11:09:34.056Z,42.84
2023-04-16T11:10:33.137Z,42.84
2023-04-16T11:11:33.038Z,41.30
2023-04-16T11:12:33.034Z,42.97
2023-04-16T11:13:33.021Z,42.94
2023-04-16T11:14:33.027Z,41.01
2023-04-16T11:15:33.013Z,40.94
2023-04-16T11:16:33.125Z,42.67
2023-04-16T11:17:33.040Z,43.14
2023-04-16T11:18:33.010Z,41.49
2023-04-16T11:19:32.985Z,43.38
2023-04-16T11:20:32.982Z,42.79
2023-04-16T11:21:34.433Z,41.95
2023-04-16T11:22:32.974Z,39.93
2023-04-16T11:23:32.969Z,42.77
2023-04-16T11:24:32.977Z,44.51
2023-04-16T11:25:32.950Z,43.76
2023-04-16T11:26:32.947Z,42.31
2023-04-16T11:27:32.938Z,44.11
2023-04-16T11:28:32.947Z,42.74
2023-04-16T11:29:32.929Z,41.72
2023-04-16T11:30:32.917Z,42.49
2023-04-16T11:31:33.080Z,39.31
2023-04-16T11:32:32.952Z,38.38
2023-04-16T11:33:32.906Z,38.63
2023-04-16T11:34:33.003Z,37.95
2023-04-16T11:35:32.930Z,37.68
2023-04-16T11:36:32.940Z,38.22
2023-04-16T11:37:32.954Z,42.75
2023-04-16T11:38:32.966Z,39.41
2023-04-16T11:39:32.986Z,39.88
2023-04-16T11:40:32.990Z,41.38
2023-04-16T11:41:33.016Z,43.18
2023-04-16T11:42:33.019Z,42.63
2023-04-16T11:43:33.035Z,40.13
2023-04-16T11:44:33.049Z,38.81
2023-04-16T11:45:33.052Z,38.38
2023-04-16T11:46:33.095Z,38.15
2023-04-16T11:47:33.248Z,38.34
2023-04-16T11:48:34.020Z,38.13
2023-04-16T11:49:33.109Z,35.82
2023-04-16T11:50:33.150Z,36.50
2023-04-16T11:51:33.144Z,35.45
2023-04-16T11:52:33.152Z,35.28
2023-04-16T11:53:33.227Z,33.33
2023-04-16T11:55:33.205Z,35.54
2023-04-16T11:56:33.268Z,36.34
2023-04-16T11:57:33.239Z,37.17
2023-04-16T11:58:33.245Z,37.63
2023-04-16T11:59:33.263Z,39.36
2023-04-16T12:00:33.276Z,36.25
2023-04-16T12:01:33.293Z,37.41
2023-04-16T12:02:33.403Z,39.07
2023-04-16T12:03:33.423Z,35.43
2023-04-16T12:04:33.449Z,39.03
2023-04-16T12:05:33.368Z,36.03
2023-04-16T12:06:34.028Z,33.08
2023-04-16T12:07:33.408Z,35.09
2023-04-16T12:08:33.538Z,35.32
2023-04-16T12:09:33.447Z,36.70
2023-04-16T12:10:33.473Z,38.49
2023-04-16T12:11:33.558Z,36.42
2023-04-16T12:12:33.505Z,39.33
2023-04-16T12:13:33.521Z,38.18
2023-04-16T12:14:33.545Z,38.16
2023-04-16T12:15:33.555Z,39.08
2023-04-16T12:16:35.748Z,38.53
2023-04-16T12:17:33.684Z,38.78
2023-04-16T12:18:33.623Z,37.54
2023-04-16T12:19:33.643Z,36.83
2023-04-16T12:20:34.619Z,33.82
2023-04-16T12:21:33.685Z,34.21
2023-04-16T12:22:36.067Z,35.91
2023-04-16T12:23:33.722Z,37.68
2023-04-16T12:24:33.748Z,37.60
2023-04-16T12:25:33.760Z,35.16
2023-04-16T12:26:33.678Z,36.10
2023-04-16T12:27:33.669Z,37.66
2023-04-16T12:28:33.678Z,38.48
2023-04-16T12:29:33.665Z,39.96
2023-04-16T12:30:33.692Z,39.37
2023-04-16T12:31:33.641Z,38.98
2023-04-16T12:32:33.653Z,38.22
2023-04-16T12:33:33.637Z,38.42
2023-04-16T12:34:48.607Z,38.18
2023-04-16T12:35:34.626Z,38.42
2023-04-16T12:36:33.620Z,38.44
2023-04-16T12:37:33.609Z,38.95
2023-04-16T12:38:34.468Z,38.24
2023-04-16T12:39:33.648Z,38.45
2023-04-16T12:40:33.660Z,35.06
2023-04-16T12:41:33.595Z,35.34
2023-04-16T12:42:33.575Z,32.22
2023-04-16T12:43:33.566Z,29.62
2023-04-16T12:44:33.573Z,27.74
2023-04-16T12:45:33.549Z,32.05
2023-04-16T12:46:33.643Z,32.28
2023-04-16T12:47:33.561Z,33.02
2023-04-16T12:48:33.538Z,33.49
2023-04-16T12:49:33.518Z,33.81
2023-04-16T12:50:33.521Z,34.80
2023-04-16T12:51:33.505Z,35.35
2023-04-16T12:52:33.501Z,34.63
2023-04-16T12:53:33.490Z,33.75